Time;durP1;ratioP1;P1;durP2;ratioP2;P2;SDS_P1;SDS_P2;PMS_P1;PMS_P2;Temp;Humidity;BMP_temperature;BMP_pressure;BME280_temperature;BME280_humidity;BME280_pressure;Samples;Min_cycle;Max_cycle;Signal;HPM_P1;HPM_P2
2021/04/14 00:00:49;;;;;;;5.18;2.00;;;24.20;39.80;;;;;;5010864;28;20103;-65
2021/04/14 00:03:21;;;;;;;1.52;0.80;;;24.00;38.30;;;;;;5025672;28;20669;-65
2021/04/14 00:05:50;;;;;;;1.35;0.77;;;24.10;39.50;;;;;;5029932;28;20058;-66
2021/04/14 00:08:18;;;;;;;4.28;1.02;;;24.40;35.90;;;;;;5033304;28;20551;-64
2021/04/14 00:10:46;;;;;;;5.90;1.13;;;24.50;34.80;;;;;;5029002;28;20391;-66
2021/04/14 00:13:19;;;;;;;3.20;1.08;;;24.80;36.60;;;;;;5027893;28;20055;-65
2021/04/14 00:15:49;;;;;;;3.58;1.05;;;25.00;35.00;;;;;;5025170;28;20021;-63
2021/04/14 00:18:19;;;;;;;3.83;1.15;;;25.10;33.90;;;;;;5035218;28;20025;-63
2021/04/14 00:20:46;;;;;;;1.38;1.05;;;24.80;35.10;;;;;;5029701;28;20051;-68
2021/04/14 00:23:15;;;;;;;2.58;1.08;;;24.50;35.30;;;;;;5030552;28;20500;-64
2021/04/14 00:25:45;;;;;;;6.03;0.95;;;24.50;36.00;;;;;;5030899;28;20026;-65
2021/04/14 00:28:14;;;;;;;3.17;0.70;;;24.50;36.00;;;;;;5032291;28;20037;-66
2021/04/14 00:30:42;;;;;;;3.22;0.75;;;24.50;35.10;;;;;;5031713;28;20025;-65
2021/04/14 00:33:11;;;;;;;1.17;0.60;;;24.20;36.00;;;;;;5032700;28;20082;-64
2021/04/14 00:35:39;;;;;;;1.48;0.70;;;24.00;34.70;;;;;;5027572;28;20112;-64
2021/04/14 00:38:09;;;;;;;2.92;0.90;;;23.90;36.70;;;;;;5031838;28;20029;-68
2021/04/14 00:40:44;;;;;;;2.35;0.90;;;23.80;37.20;;;;;;5027446;28;20136;-65
2021/04/14 00:43:13;;;;;;;2.53;0.63;;;23.70;34.80;;;;;;5030730;28;20028;-64
2021/04/14 00:45:41;;;;;;;1.52;0.80;;;23.70;35.80;;;;;;5027424;28;20033;-65
2021/04/14 00:48:10;;;;;;;3.58;0.88;;;23.60;35.70;;;;;;5030566;28;20492;-64
2021/04/14 00:50:38;;;;;;;3.05;0.80;;;23.60;35.30;;;;;;5030305;28;20025;-66
2021/04/14 00:53:07;;;;;;;1.42;0.70;;;23.60;34.50;;;;;;5027703;28;20529;-65
2021/04/14 00:55:36;;;;;;;1.42;0.70;;;23.60;33.90;;;;;;5029459;28;20041;-67
2021/04/14 00:58:05;;;;;;;2.45;0.77;;;23.60;33.60;;;;;;5029674;28;20040;-64
2021/04/14 01:01:00;;;;;;;2.58;0.90;;;23.70;33.40;;;;;;5007636;28;20418;-66
2021/04/14 01:03:33;;;;;;;1.77;0.63;;;23.80;33.20;;;;;;5027355;28;20041;-64
2021/04/14 01:06:12;;;;;;;1.38;0.85;;;23.90;33.70;;;;;;5027248;28;20445;-69
2021/04/14 01:08:40;;;;;;;4.18;0.90;;;24.00;34.30;;;;;;5023685;28;20061;-64
2021/04/14 01:11:09;;;;;;;2.53;0.70;;;24.00;34.80;;;;;;5029013;28;20255;-63
2021/04/14 01:13:37;;;;;;;7.78;5.93;;;24.10;35.80;;;;;;5030428;28;20029;-65
2021/04/14 01:16:05;;;;;;;7.22;5.10;;;24.00;33.00;;;;;;5029393;28;20083;-63
2021/04/14 01:18:34;;;;;;;4.88;2.45;;;23.90;34.00;;;;;;5028220;28;20026;-67
2021/04/14 01:21:05;;;;;;;4.40;2.15;;;24.00;35.10;;;;;;5029132;28;20033;-65
2021/04/14 01:23:32;;;;;;;2.90;0.90;;;24.20;35.70;;;;;;5027977;28;20084;-67
2021/04/14 01:26:01;;;;;;;2.30;1.20;;;24.30;35.40;;;;;;5031173;28;20090;-64
2021/04/14 01:28:36;;;;;;;1.63;1.13;;;24.20;34.70;;;;;;5028804;28;20031;-63
2021/04/14 01:31:11;;;;;;;4.15;0.88;;;24.10;35.60;;;;;;5023831;28;20104;-67
2021/04/14 01:33:39;;;;;;;5.00;1.13;;;24.10;35.20;;;;;;5029784;28;20514;-68
2021/04/14 01:36:09;;;;;;;2.78;0.70;;;24.10;36.20;;;;;;5027349;28;20021;-64
2021/04/14 01:38:38;;;;;;;6.13;0.90;;;24.20;35.60;;;;;;5026992;28;20040;-63
2021/04/14 01:41:08;;;;;;;3.22;0.88;;;24.70;34.40;;;;;;5032414;28;20507;-68
2021/04/14 01:43:36;;;;;;;3.72;0.82;;;25.40;33.00;;;;;;5025706;28;20032;-63
2021/04/14 01:46:05;;;;;;;1.33;0.65;;;26.00;33.20;;;;;;5021883;28;20043;-64
2021/04/14 01:48:33;;;;;;;6.53;1.30;;;26.40;32.30;;;;;;5027979;28;20476;-67
2021/04/14 01:51:04;;;;;;;5.72;2.35;;;26.80;33.00;;;;;;5024754;28;20059;-65
2021/04/14 01:53:32;;;;;;;5.55;2.05;;;27.20;33.00;;;;;;5028669;28;20014;-63
2021/04/14 01:56:00;;;;;;;3.65;1.00;;;27.60;32.20;;;;;;5030138;28;20033;-66
2021/04/14 01:58:30;;;;;;;2.80;0.70;;;27.80;32.30;;;;;;5025976;28;20422;-65
2021/04/14 02:01:05;;;;;;;1.30;0.73;;;27.80;31.30;;;;;;5027277;28;20104;-66
2021/04/14 02:03:36;;;;;;;2.22;0.90;;;27.90;32.10;;;;;;5027416;28;20108;-65
2021/04/14 02:06:08;;;;;;;3.33;2.95;;;27.90;32.20;;;;;;5025144;28;20056;-67
2021/04/14 02:08:36;;;;;;;9.10;8.13;;;27.50;31.30;;;;;;5022653;28;20140;-67
2021/04/14 02:11:08;;;;;;;8.15;6.45;;;27.80;30.80;;;;;;5030888;28;20502;-65
2021/04/14 02:13:39;;;;;;;6.10;3.15;;;28.00;29.30;;;;;;5028287;28;20036;-65
2021/04/14 02:16:11;;;;;;;2.35;1.35;;;28.00;30.00;;;;;;5027983;28;20028;-65
2021/04/14 02:18:38;;;;;;;3.13;1.10;;;27.80;29.90;;;;;;5026519;28;20526;-65
2021/04/14 02:21:06;;;;;;;2.00;0.80;;;27.50;31.20;;;;;;5029505;28;20476;-65
2021/04/14 02:23:36;;;;;;;2.80;1.17;;;27.30;32.80;;;;;;5031531;28;20073;-63
2021/04/14 02:26:08;;;;;;;4.57;1.10;;;27.40;32.00;;;;;;5026098;28;20435;-63
2021/04/14 02:28:35;;;;;;;2.80;1.00;;;27.40;31.70;;;;;;5029241;28;20056;-65
2021/04/14 02:31:03;;;;;;;4.20;1.13;;;27.20;32.10;;;;;;5027512;28;20048;-65
2021/04/14 02:33:31;;;;;;;2.97;1.08;;;27.10;32.20;;;;;;5026187;28;20032;-65
2021/04/14 02:35:58;;;;;;;3.35;1.10;;;26.90;31.90;;;;;;5025356;28;20033;-66
2021/04/14 02:38:26;;;;;;;2.67;1.00;;;26.80;32.50;;;;;;5027118;28;20116;-65
2021/04/14 02:40:53;;;;;;;2.80;0.90;;;26.80;31.90;;;;;;5030111;28;20125;-69
2021/04/14 02:43:22;;;;;;;1.45;0.65;;;26.80;31.90;;;;;;5028990;28;20076;-70
2021/04/14 02:45:50;;;;;;;3.45;0.73;;;26.80;31.80;;;;;;5036980;23;20056;-65
2021/04/14 02:48:17;;;;;;;5.47;1.00;;;27.10;31.70;;;;;;5020110;28;20045;-68
2021/04/14 02:50:45;;;;;;;2.58;0.80;;;27.50;30.10;;;;;;5020005;28;20029;-64
2021/04/14 02:53:12;;;;;;;1.95;0.57;;;27.40;29.70;;;;;;5019495;28;20052;-64
2021/04/14 02:55:40;;;;;;;3.25;0.88;;;27.90;31.10;;;;;;5019633;28;20079;-64
2021/04/14 02:58:08;;;;;;;1.33;0.70;;;28.50;30.20;;;;;;5020910;28;20030;-68
2021/04/14 03:00:36;;;;;;;2.15;1.15;;;28.30;28.70;;;;;;5021817;28;20112;-63
2021/04/14 03:03:03;;;;;;;2.65;0.90;;;27.80;30.00;;;;;;5022890;28;20447;-67
2021/04/14 03:05:33;;;;;;;2.03;0.73;;;27.30;31.70;;;;;;5020846;28;20026;-63
2021/04/14 03:08:01;;;;;;;4.65;0.90;;;27.00;31.90;;;;;;5017873;28;20029;-68
2021/04/14 03:10:30;;;;;;;1.73;0.60;;;27.30;31.50;;;;;;5013843;28;20030;-68
2021/04/14 03:12:59;;;;;;;1.15;0.88;;;27.80;30.60;;;;;;5020732;28;20034;-67
2021/04/14 03:15:32;;;;;;;1.95;0.75;;;28.40;29.90;;;;;;5019343;28;20025;-68
2021/04/14 03:18:01;;;;;;;3.20;0.77;;;28.90;29.60;;;;;;5019919;28;20032;-64
2021/04/14 03:20:29;;;;;;;1.77;0.68;;;28.60;29.70;;;;;;5021078;28;20036;-67
2021/04/14 03:22:58;;;;;;;1.48;0.60;;;28.00;30.00;;;;;;5019892;28;20041;-64
2021/04/14 03:25:30;;;;;;;1.55;0.88;;;27.70;31.80;;;;;;4324626;28;10000410;-66
2021/04/14 03:27:59;;;;;;;;;;;27.70;31.70;;;;;;5017818;28;20529;-62
2021/04/14 03:30:28;;;;;;;1.70;0.80;;;27.40;31.70;;;;;;5017667;28;19917;-65
2021/04/14 03:32:57;;;;;;;1.60;0.70;;;27.60;32.20;;;;;;5013042;28;20022;-67
2021/04/14 03:35:27;;;;;;;1.95;0.77;;;27.90;31.80;;;;;;5020320;28;20017;-68
2021/04/14 03:37:56;;;;;;;0.93;0.50;;;28.20;30.40;;;;;;5021058;28;20571;-67
2021/04/14 03:40:24;;;;;;;2.20;0.80;;;28.60;31.00;;;;;;5020784;28;20033;-68
2021/04/14 03:42:53;;;;;;;2.15;0.93;;;28.90;29.80;;;;;;5019730;28;20166;-62
2021/04/14 03:45:27;;;;;;;3.92;1.05;;;29.30;30.00;;;;;;5020769;28;20044;-62
2021/04/14 03:47:55;;;;;;;1.98;0.70;;;29.70;29.30;;;;;;5016447;28;20048;-62
2021/04/14 03:50:23;;;;;;;3.17;0.70;;;30.00;29.20;;;;;;5014122;28;20503;-63
2021/04/14 03:52:51;;;;;;;1.48;0.63;;;30.00;29.10;;;;;;5019705;28;20026;-67
2021/04/14 03:55:22;;;;;;;3.50;0.80;;;30.20;28.90;;;;;;5018851;28;20112;-67
2021/04/14 03:57:49;;;;;;;2.08;0.55;;;30.20;28.90;;;;;;5021017;28;20643;-66
2021/04/14 04:00:18;;;;;;;5.00;0.70;;;30.10;28.30;;;;;;5026249;28;20063;-68
2021/04/14 04:02:45;;;;;;;3.58;0.88;;;30.00;28.40;;;;;;5019970;28;20334;-63
2021/04/14 04:05:13;;;;;;;4.22;1.05;;;30.20;29.30;;;;;;5028179;28;20676;-67
2021/04/14 04:07:40;;;;;;;3.90;0.88;;;30.40;29.30;;;;;;5005483;28;20552;-65
2021/04/14 04:10:08;;;;;;;4.97;0.95;;;30.30;29.00;;;;;;5006008;28;20463;-63
2021/04/14 04:12:36;;;;;;;3.95;0.70;;;30.20;27.60;;;;;;5027796;28;20296;-69
2021/04/14 04:15:11;;;;;;;2.40;0.60;;;29.70;26.80;;;;;;5028136;28;20026;-63
2021/04/14 04:17:39;;;;;;;3.97;0.73;;;29.10;26.50;;;;;;5009984;28;20055;-66
2021/04/14 04:20:09;;;;;;;2.20;0.95;;;28.30;27.50;;;;;;5010953;28;20319;-68
2021/04/14 04:22:37;;;;;;;3.13;0.77;;;27.80;27.60;;;;;;5027971;28;20621;-66
2021/04/14 04:25:06;;;;;;;3.13;1.08;;;27.70;27.10;;;;;;5007327;28;20734;-67
2021/04/14 04:27:33;;;;;;;6.38;0.98;;;27.60;27.40;;;;;;5005081;28;20048;-65
2021/04/14 04:30:00;;;;;;;2.70;0.70;;;27.50;27.90;;;;;;5021183;28;20515;-66
2021/04/14 04:32:28;;;;;;;2.10;0.93;;;27.60;28.00;;;;;;5022944;28;20018;-67
2021/04/14 04:34:55;;;;;;;2.67;0.98;;;27.70;28.00;;;;;;5005201;28;20369;-66
2021/04/14 04:37:22;;;;;;;4.38;1.20;;;27.70;27.80;;;;;;5022427;28;20014;-68
2021/04/14 04:39:50;;;;;;;0.90;0.40;;;27.70;28.00;;;;;;5021771;28;20025;-67
2021/04/14 04:42:17;;;;;;;2.72;0.90;;;27.60;28.10;;;;;;5022040;28;20017;-66
2021/04/14 04:44:45;;;;;;;2.40;1.30;;;27.60;27.90;;;;;;5021420;28;20022;-68
2021/04/14 04:47:12;;;;;;;2.83;1.73;;;27.60;27.90;;;;;;5021469;28;20435;-67
2021/04/14 04:49:40;;;;;;;5.03;2.20;;;27.80;28.10;;;;;;5019163;28;20033;-65
2021/04/14 04:52:07;;;;;;;3.92;0.70;;;27.90;28.30;;;;;;5024898;28;20476;-64
2021/04/14 04:54:35;;;;;;;7.75;1.00;;;27.90;27.90;;;;;;5023878;28;20060;-62
2021/04/14 04:57:02;;;;;;;1.33;0.70;;;27.70;28.40;;;;;;5022310;28;20032;-67
2021/04/14 04:59:30;;;;;;;4.32;1.55;;;27.60;28.70;;;;;;5023190;28;20017;-67
2021/04/14 05:02:01;;;;;;;2.97;1.30;;;27.60;28.40;;;;;;5020937;28;20575;-64
2021/04/14 05:04:29;;;;;;;4.30;0.73;;;27.90;28.40;;;;;;5022908;28;20075;-65
2021/04/14 05:06:56;;;;;;;3.97;1.17;;;28.40;28.30;;;;;;5020941;28;20026;-67
2021/04/14 05:09:24;;;;;;;1.95;0.60;;;28.80;28.20;;;;;;5021362;28;20473;-68
2021/04/14 05:11:52;;;;;;;3.10;0.95;;;28.90;27.80;;;;;;5017832;28;20029;-64
2021/04/14 05:14:19;;;;;;;3.10;0.80;;;29.00;28.00;;;;;;5022425;28;20074;-66
2021/04/14 05:16:46;;;;;;;3.35;0.82;;;29.20;27.80;;;;;;5022175;28;20196;-67
2021/04/14 05:19:13;;;;;;;1.70;0.70;;;29.20;27.40;;;;;;5021624;28;20060;-66
2021/04/14 05:21:41;;;;;;;2.88;1.00;;;29.40;27.70;;;;;;5022829;28;20593;-63
2021/04/14 05:24:10;;;;;;;3.13;0.70;;;29.40;27.60;;;;;;5021726;28;20104;-70
2021/04/14 05:26:38;;;;;;;2.50;0.70;;;29.50;26.90;;;;;;5022027;28;20064;-65
2021/04/14 05:29:06;;;;;;;1.67;0.68;;;29.40;27.20;;;;;;5025134;28;20105;-66
2021/04/14 05:31:37;;;;;;;1.00;0.60;;;29.20;27.10;;;;;;5021604;28;20362;-63
2021/04/14 05:34:05;;;;;;;2.80;0.50;;;29.20;28.40;;;;;;5023592;28;20025;-68
2021/04/14 05:36:33;;;;;;;2.17;0.68;;;29.30;26.90;;;;;;5023812;28;20105;-67
2021/04/14 05:39:00;;;;;;;3.13;0.65;;;29.20;27.10;;;;;;5023153;28;20057;-65
2021/04/14 05:41:28;;;;;;;2.13;0.70;;;29.20;26.90;;;;;;5008219;28;20059;-67
2021/04/14 05:43:55;;;;;;;1.27;0.60;;;29.20;27.10;;;;;;5022492;28;20142;-69
2021/04/14 05:46:22;;;;;;;1.38;0.60;;;29.40;27.10;;;;;;5022669;28;20080;-67
2021/04/14 05:48:51;;;;;;;1.63;0.80;;;29.50;26.80;;;;;;5018151;28;20087;-66
2021/04/14 05:51:30;;;;;;;2.15;0.77;;;29.50;27.50;;;;;;5023755;28;20564;-67
2021/04/14 05:54:00;;;;;;;1.40;0.60;;;29.90;27.50;;;;;;5023612;28;20392;-67
2021/04/14 05:56:29;;;;;;;1.88;0.70;;;30.00;27.00;;;;;;5024753;28;20033;-68
2021/04/14 05:58:57;;;;;;;2.47;0.60;;;29.30;27.10;;;;;;5024811;28;20035;-65
2021/04/14 06:01:27;;;;;;;6.57;0.93;;;28.80;27.90;;;;;;5024128;28;20515;-68
2021/04/14 06:03:55;;;;;;;1.90;0.47;;;28.40;28.20;;;;;;5024108;28;20029;-66
2021/04/14 06:06:22;;;;;;;1.27;0.50;;;28.10;28.50;;;;;;5021277;28;20032;-67
2021/04/14 06:08:50;;;;;;;1.52;0.80;;;27.90;29.10;;;;;;5025428;28;20029;-66
2021/04/14 06:11:17;;;;;;;2.03;0.47;;;27.80;28.40;;;;;;5023477;28;20431;-70
2021/04/14 06:13:45;;;;;;;2.63;0.60;;;27.80;29.20;;;;;;5024009;28;20029;-69
2021/04/14 06:16:13;;;;;;;1.88;0.82;;;27.70;29.20;;;;;;5024822;28;20017;-71
2021/04/14 06:18:40;;;;;;;3.30;0.80;;;27.90;29.00;;;;;;5024286;28;20025;-71
2021/04/14 06:21:08;;;;;;;3.53;0.70;;;28.40;30.80;;;;;;5023733;28;20107;-69
2021/04/14 06:23:36;;;;;;;4.53;1.00;;;28.30;29.00;;;;;;5024259;28;20033;-68
2021/04/14 06:28:30;;;;;;;3.00;1.05;;;29.10;26.50;;;;;;5023774;28;20171;-70
2021/04/14 06:30:58;;;;;;;4.82;1.00;;;29.40;25.90;;;;;;5024615;28;20036;-73
2021/04/14 06:33:27;;;;;;;5.05;1.60;;;29.60;26.40;;;;;;5023680;28;20604;-74
2021/04/14 06:35:55;;;;;;;4.20;1.50;;;29.90;25.90;;;;;;5022433;28;20096;-68
2021/04/14 06:38:27;;;;;;;4.43;2.05;;;29.80;26.10;;;;;;5027273;28;20021;-69
2021/04/14 06:41:50;;;;;;;2.33;1.08;;;30.00;26.70;;;;;;5021597;28;20057;-69
2021/04/14 06:44:53;;;;;;;2.70;0.95;;;30.00;26.50;;;;;;5022908;28;20486;-70
2021/04/14 06:47:55;;;;;;;5.20;1.17;;;29.90;25.80;;;;;;5022702;28;20037;-67
2021/04/14 06:50:25;;;;;;;4.60;1.02;;;30.00;26.30;;;;;;5023646;28;20056;-71
2021/04/14 06:53:02;;;;;;;3.33;0.90;;;29.80;26.50;;;;;;5023368;28;20131;-68
2021/04/14 06:55:40;;;;;;;2.83;0.95;;;29.20;25.80;;;;;;5020676;28;20029;-71
2021/04/14 06:58:21;;;;;;;2.45;0.77;;;28.30;26.50;;;;;;5024131;28;20049;-70
2021/04/14 07:01:00;;;;;;;4.88;1.10;;;28.20;27.00;;;;;;5022220;28;20559;-64
2021/04/14 07:03:32;;;;;;;0.85;0.60;;;27.90;27.20;;;;;;5021461;28;20480;-69
2021/04/14 07:06:03;;;;;;;6.82;1.40;;;27.40;27.00;;;;;;5020485;28;20033;-67
2021/04/14 07:08:42;;;;;;;2.45;0.93;;;27.00;27.60;;;;;;5024141;28;20036;-67
2021/04/14 07:11:17;;;;;;;2.47;0.95;;;26.70;28.50;;;;;;5024568;28;20025;-69
2021/04/14 07:13:47;;;;;;;2.47;0.68;;;26.40;29.00;;;;;;5024188;28;20059;-69
2021/04/14 07:16:25;;;;;;;3.17;1.50;;;26.10;28.50;;;;;;5026633;28;20021;-71
2021/04/14 07:19:11;;;;;;;6.43;3.85;;;25.90;29.30;;;;;;5025840;28;20021;-69
2021/04/14 07:22:01;;;;;;;9.68;7.03;;;25.60;29.80;;;;;;5026863;28;20044;-67
2021/04/14 07:25:00;;;;;;;4.82;1.17;;;25.40;30.70;;;;;;5016481;28;20800;-67
2021/04/14 07:28:13;;;;;;;1.98;0.70;;;25.40;28.90;;;;;;5019068;28;20503;-67
2021/04/14 07:30:48;;;;;;;5.10;1.63;;;25.40;29.50;;;;;;5025999;28;20488;-67
2021/04/14 07:33:43;;;;;;;2.80;1.00;;;25.30;28.40;;;;;;5024512;28;20500;-67
2021/04/14 07:36:31;;;;;;;2.78;0.93;;;25.20;28.90;;;;;;5024993;28;20079;-67
2021/04/14 07:39:14;;;;;;;3.85;1.55;;;25.10;28.40;;;;;;5023812;28;20029;-68
2021/04/14 07:42:22;;;;;;;3.80;2.20;;;24.90;28.60;;;;;;5023999;28;20087;-66
2021/04/14 07:45:14;;;;;;;4.45;1.63;;;24.90;29.10;;;;;;5021258;28;20037;-66
2021/04/14 07:47:50;;;;;;;2.08;0.95;;;24.80;29.20;;;;;;5022505;28;20048;-68
2021/04/14 07:50:22;;;;;;;2.85;1.65;;;24.70;28.80;;;;;;5020858;28;20539;-68
2021/04/14 07:52:49;;;;;;;3.42;1.90;;;24.70;29.00;;;;;;5022669;28;20036;-66
2021/04/14 07:55:34;;;;;;;6.72;2.80;;;24.60;29.40;;;;;;5022625;28;20025;-67
2021/04/14 07:58:07;;;;;;;3.50;3.00;;;24.60;29.40;;;;;;5022267;28;20970;-66
2021/04/14 08:00:39;;;;;;;5.90;3.05;;;24.50;29.70;;;;;;5020364;28;20111;-67
2021/04/14 08:03:10;;;;;;;;;;;24.50;29.60;;;;;;5022450;28;20030;-66
2021/04/14 08:05:37;;;;;;;2.10;0.80;;;24.40;30.00;;;;;;5022639;28;19917;-67
2021/04/14 08:08:31;;;;;;;4.78;1.52;;;24.40;30.20;;;;;;5025596;28;20045;-66
2021/04/14 08:11:12;;;;;;;2.10;0.90;;;24.40;30.20;;;;;;5024769;28;20029;-65
2021/04/14 08:13:42;;;;;;;2.72;1.27;;;24.40;30.20;;;;;;5023484;28;20034;-66
2021/04/14 08:16:34;;;;;;;2.75;1.05;;;24.40;30.00;;;;;;5022033;28;20021;-66
2021/04/14 08:19:27;;;;;;;3.72;1.35;;;24.40;30.00;;;;;;5017463;28;20622;-70
2021/04/14 08:22:07;;;;;;;4.18;0.90;;;24.30;30.50;;;;;;5020217;28;20488;-67
2021/04/14 08:24:47;;;;;;;3.25;1.30;;;24.40;30.00;;;;;;5016439;28;20540;-66
2021/04/14 08:27:53;;;;;;;4.60;1.00;;;24.30;30.00;;;;;;5019204;28;20026;-67
2021/04/14 08:30:24;;;;;;;4.68;1.50;;;24.30;30.60;;;;;;5014513;28;20571;-68
2021/04/14 08:32:54;;;;;;;8.30;2.30;;;24.30;30.20;;;;;;5023968;28;20034;-66
2021/04/14 08:35:53;;;;;;;7.65;1.60;;;24.20;30.80;;;;;;5023025;28;20059;-68
2021/04/14 08:38:23;;;;;;;4.80;1.27;;;24.30;30.30;;;;;;4996840;28;20108;-68
2021/04/14 08:40:54;;;;;;;10.38;2.42;;;24.30;30.10;;;;;;5022220;28;20021;-65
2021/04/14 08:43:26;;;;;;;9.10;2.05;;;24.30;30.70;;;;;;5024282;28;20484;-66
2021/04/14 08:45:54;;;;;;;6.50;2.25;;;24.30;30.70;;;;;;5021356;28;20095;-71
2021/04/14 08:48:30;;;;;;;6.95;1.92;;;24.20;30.50;;;;;;5019962;28;20355;-68
2021/04/14 08:51:01;;;;;;;5.38;1.65;;;24.20;30.40;;;;;;5020939;28;20112;-66
2021/04/14 08:53:38;;;;;;;4.25;1.42;;;24.20;30.30;;;;;;5018290;28;20033;-67
2021/04/14 08:56:06;;;;;;;5.05;1.45;;;24.30;30.90;;;;;;5020347;28;20025;-68
2021/04/14 08:58:34;;;;;;;5.07;2.35;;;24.20;30.90;;;;;;5020208;28;20021;-69
2021/04/14 09:01:03;;;;;;;8.40;2.58;;;24.20;30.70;;;;;;5019988;28;20065;-73
2021/04/14 09:03:35;;;;;;;6.75;1.98;;;24.20;31.00;;;;;;5017317;28;20029;-66
2021/04/14 09:06:03;;;;;;;6.82;1.83;;;24.10;30.80;;;;;;5020510;28;20029;-70
2021/04/14 09:08:36;;;;;;;6.05;2.25;;;24.10;30.40;;;;;;5014595;28;20037;-69
2021/04/14 09:11:06;;;;;;;8.02;2.33;;;24.00;31.70;;;;;;5021403;28;20472;-66
2021/04/14 09:14:01;;;;;;;6.65;1.90;;;23.90;31.40;;;;;;5017502;28;20021;-68
2021/04/14 09:16:35;;;;;;;5.28;1.80;;;23.80;31.40;;;;;;5016302;28;20029;-66
2021/04/14 09:19:09;;;;;;;6.90;1.73;;;23.70;31.40;;;;;;5021838;28;20095;-70
2021/04/14 09:21:46;;;;;;;4.95;1.80;;;23.60;32.20;;;;;;5022945;28;20045;-67
2021/04/14 09:24:44;;;;;;;7.93;1.80;;;23.40;32.50;;;;;;5016329;28;20117;-70
2021/04/14 09:27:26;;;;;;;6.20;1.80;;;23.30;32.50;;;;;;5010504;28;20038;-69
2021/04/14 09:30:18;;;;;;;5.53;2.08;;;23.20;32.60;;;;;;5017113;28;20707;-67
2021/04/14 09:32:51;;;;;;;4.97;2.30;;;23.00;34.60;;;;;;5016473;28;20465;-68
2021/04/14 09:35:30;;;;;;;7.03;2.20;;;22.80;35.10;;;;;;5020980;28;20127;-66
2021/04/14 09:38:23;;;;;;;6.38;2.08;;;22.70;33.90;;;;;;5007661;28;20065;-70
2021/04/14 09:40:50;;;;;;;;;;;22.60;34.60;;;;;;5004468;28;20035;-71
2021/04/14 09:43:39;;;;;;;2.33;1.60;;;22.50;35.40;;;;;;5014207;28;19913;-70
2021/04/14 09:46:10;;;;;;;3.78;1.70;;;22.40;34.20;;;;;;5020196;28;20033;-69
2021/04/14 09:48:47;;;;;;;7.20;1.92;;;22.30;36.60;;;;;;5025394;28;20555;-68
2021/04/14 09:51:23;;;;;;;4.07;1.65;;;22.20;35.20;;;;;;5019433;28;20080;-66
2021/04/14 09:54:01;;;;;;;6.43;2.28;;;22.10;36.00;;;;;;5018524;28;20647;-66
2021/04/14 09:56:33;;;;;;;7.18;2.45;;;21.80;36.30;;;;;;5024178;28;20102;-69
2021/04/14 09:59:16;;;;;;;8.18;2.85;;;21.70;37.30;;;;;;5015171;28;20086;-64
2021/04/14 10:01:48;;;;;;;6.07;2.42;;;21.50;37.30;;;;;;5021515;28;20045;-68
2021/04/14 10:04:19;;;;;;;10.07;3.08;;;21.30;37.60;;;;;;5014578;28;20052;-65
2021/04/14 10:06:47;;;;;;;10.43;3.35;;;21.20;38.40;;;;;;5018995;28;20033;-68
2021/04/14 10:09:32;;;;;;;13.38;3.10;;;21.00;38.10;;;;;;5019998;28;20026;-66
2021/04/14 10:12:16;;;;;;;7.80;2.85;;;20.90;38.90;;;;;;5027082;28;20036;-67
2021/04/14 10:14:52;;;;;;;6.93;2.78;;;20.80;39.80;;;;;;5020827;28;20400;-70
2021/04/14 10:17:23;;;;;;;5.28;2.30;;;20.80;38.70;;;;;;5018098;28;20078;-70
2021/04/14 10:19:56;;;;;;;5.93;3.40;;;20.70;38.80;;;;;;5020622;28;20033;-66
2021/04/14 10:22:33;;;;;;;7.40;4.53;;;20.60;39.90;;;;;;5028473;28;20021;-69
2021/04/14 10:25:09;;;;;;;7.28;3.35;;;20.50;39.80;;;;;;5018835;28;20417;-66
2021/04/14 10:27:37;;;;;;;5.53;2.70;;;20.50;40.90;;;;;;5021301;28;20051;-63
2021/04/14 10:30:10;;;;;;;6.13;2.33;;;20.50;39.90;;;;;;5020096;28;20030;-65
2021/04/14 10:32:38;;;;;;;6.00;2.38;;;20.50;40.10;;;;;;5025635;28;20044;-67
2021/04/14 10:35:11;;;;;;;4.32;2.42;;;20.40;41.50;;;;;;5018821;28;20085;-65
2021/04/14 10:37:43;;;;;;;3.97;2.33;;;20.40;41.10;;;;;;5017109;28;20026;-68
2021/04/14 10:40:18;;;;;;;;;;;20.40;40.50;;;;;;5020893;28;20108;-64
2021/04/14 10:42:47;;;;;;;2.97;1.75;;;20.30;40.50;;;;;;5019393;28;20324;-66
2021/04/14 10:45:17;;;;;;;7.53;2.03;;;20.20;40.60;;;;;;5022416;28;20124;-67
2021/04/14 10:47:46;;;;;;;4.55;1.70;;;20.10;41.10;;;;;;5029873;28;20081;-67
2021/04/14 10:50:29;;;;;;;7.15;3.70;;;20.10;40.50;;;;;;5024189;28;20095;-71
2021/04/14 10:53:10;;;;;;;4.97;2.15;;;20.10;42.10;;;;;;5029984;28;20546;-66
2021/04/14 10:55:46;;;;;;;3.72;2.08;;;20.10;41.30;;;;;;5023251;28;20029;-66
2021/04/14 10:58:24;;;;;;;5.32;2.42;;;19.90;42.40;;;;;;5023765;28;20491;-66
2021/04/14 11:00:53;;;;;;;5.95;2.25;;;20.00;41.80;;;;;;5020881;28;20495;-69
2021/04/14 11:03:23;;;;;;;3.97;2.55;;;19.90;43.30;;;;;;5024234;28;20028;-68
2021/04/14 11:05:57;;;;;;;5.00;2.13;;;19.70;42.70;;;;;;5012114;28;20396;-66
2021/04/14 11:08:28;;;;;;;5.00;2.45;;;19.50;42.90;;;;;;5031917;28;20032;-68
2021/04/14 11:11:00;;;;;;;4.95;1.90;;;19.40;44.10;;;;;;5022562;28;20037;-67
2021/04/14 11:13:29;;;;;;;5.05;2.00;;;19.40;43.10;;;;;;5023902;28;20128;-66
2021/04/14 11:15:58;;;;;;;4.35;2.40;;;19.50;43.80;;;;;;5012677;28;20044;-66
2021/04/14 11:18:51;;;;;;;3.75;2.05;;;19.60;43.60;;;;;;5024745;28;20464;-65
2021/04/14 11:21:28;;;;;;;5.28;2.50;;;19.50;43.20;;;;;;5023855;28;20037;-65
2021/04/14 11:24:03;;;;;;;4.97;3.47;;;19.50;43.00;;;;;;5026321;28;20029;-69
2021/04/14 11:26:31;;;;;;;7.85;3.47;;;19.80;42.50;;;;;;5021410;28;20033;-66
2021/04/14 11:28:59;;;;;;;5.07;2.17;;;19.80;41.30;;;;;;5024156;28;20037;-64
2021/04/14 11:31:38;;;;;;;4.63;1.80;;;20.00;41.70;;;;;;5027662;28;20494;-67
2021/04/14 11:34:24;;;;;;;2.60;1.52;;;20.00;41.00;;;;;;5027881;28;20032;-67
2021/04/14 11:36:59;;;;;;;5.85;1.70;;;19.90;41.40;;;;;;5026892;28;20053;-69
2021/04/14 11:39:47;;;;;;;3.25;1.77;;;19.90;41.70;;;;;;5023506;28;20034;-72
2021/04/14 11:42:26;;;;;;;4.85;2.05;;;19.90;41.60;;;;;;4975413;28;20045;-67
2021/04/14 11:44:54;;;;;;;6.03;1.80;;;19.80;40.10;;;;;;5028519;28;20433;-72
2021/04/14 11:47:26;;;;;;;4.50;2.22;;;19.70;40.40;;;;;;5020517;28;20518;-73
2021/04/14 11:49:55;;;;;;;7.05;3.35;;;19.40;41.20;;;;;;5028033;28;20057;-74
2021/04/14 11:52:35;;;;;;;8.13;3.83;;;19.30;41.00;;;;;;5027932;28;20102;-69
2021/04/14 11:55:21;;;;;;;5.15;2.30;;;19.40;41.40;;;;;;5027399;28;20053;-71
2021/04/14 11:58:01;;;;;;;6.30;2.22;;;19.60;41.30;;;;;;5027266;28;20028;-72
2021/04/14 12:00:42;;;;;;;10.13;2.67;;;19.70;40.80;;;;;;5028536;28;20053;-71
2021/04/14 12:03:20;;;;;;;4.88;1.70;;;19.70;40.60;;;;;;5031146;28;20464;-74
2021/04/14 12:05:53;;;;;;;2.72;1.67;;;19.80;40.40;;;;;;5027622;28;20029;-66
2021/04/14 12:08:21;;;;;;;2.22;1.40;;;19.80;40.30;;;;;;5028213;28;20088;-66
2021/04/14 12:10:48;;;;;;;2.95;1.60;;;20.00;39.70;;;;;;5035656;28;20033;-71
2021/04/14 12:13:16;;;;;;;2.50;1.40;;;20.10;39.50;;;;;;5026937;28;20292;-68
2021/04/14 12:15:43;;;;;;;7.25;1.60;;;20.30;39.20;;;;;;5034953;28;20035;-67
2021/04/14 12:18:11;;;;;;;2.28;1.15;;;20.30;39.00;;;;;;5025909;28;20399;-71
2021/04/14 12:20:38;;;;;;;2.70;1.25;;;20.20;39.60;;;;;;5028905;28;20283;-66
2021/04/14 12:23:05;;;;;;;6.32;1.88;;;20.00;40.00;;;;;;5027726;28;20021;-67
2021/04/14 12:25:33;;;;;;;5.13;1.50;;;19.80;40.90;;;;;;5031437;28;20024;-72
2021/04/14 12:28:00;;;;;;;5.03;2.05;;;19.60;41.00;;;;;;5025466;28;20097;-66
2021/04/14 12:30:27;;;;;;;6.32;2.80;;;19.70;40.80;;;;;;5031225;28;20075;-73
2021/04/14 12:32:55;;;;;;;5.53;2.13;;;19.80;40.60;;;;;;5027730;28;20585;-72
2021/04/14 12:35:25;;;;;;;4.15;1.20;;;19.90;40.40;;;;;;5026742;28;20021;-65
2021/04/14 12:37:52;;;;;;;7.15;2.00;;;20.00;40.50;;;;;;5026648;28;20030;-67
2021/04/14 12:40:20;;;;;;;3.67;1.50;;;19.90;40.90;;;;;;5027262;28;20120;-67
2021/04/14 12:42:48;;;;;;;2.85;1.30;;;19.90;40.80;;;;;;5027057;28;20025;-67
2021/04/14 12:45:38;;;;;;;3.15;1.40;;;20.00;40.50;;;;;;5026755;28;20025;-70
2021/04/14 12:48:12;;;;;;;6.78;1.65;;;19.90;41.00;;;;;;5034498;28;20108;-74
2021/04/14 12:50:39;;;;;;;3.22;1.20;;;19.50;41.90;;;;;;5030255;28;20032;-71
2021/04/14 12:53:08;;;;;;;5.70;1.42;;;19.10;43.10;;;;;;5032001;28;20025;-66
2021/04/14 12:55:53;;;;;;;4.00;1.63;;;18.80;43.70;;;;;;5026767;28;20104;-71
2021/04/14 12:58:39;;;;;;;6.25;1.30;;;18.60;44.30;;;;;;5026209;28;20124;-71
2021/04/14 13:01:09;;;;;;;2.67;1.30;;;18.30;45.30;;;;;;5025663;28;20120;-70
2021/04/14 13:03:45;;;;;;;3.42;1.65;;;18.00;46.30;;;;;;5027965;28;20436;-66
2021/04/14 13:06:42;;;;;;;3.55;1.95;;;17.90;46.60;;;;;;5025882;28;20034;-70
2021/04/14 13:09:11;;;;;;;2.75;1.40;;;17.80;46.40;;;;;;5019024;28;20485;-72
2021/04/14 13:11:48;;;;;;;3.83;1.67;;;17.80;46.50;;;;;;5024356;28;20026;-72
2021/04/14 13:14:16;;;;;;;4.70;1.50;;;17.80;46.70;;;;;;5026749;28;20318;-73
2021/04/14 13:16:51;;;;;;;6.05;1.60;;;17.70;47.10;;;;;;5027581;28;20539;-73
2021/04/14 13:19:19;;;;;;;6.63;1.67;;;17.50;48.00;;;;;;5023081;28;20021;-67